sensor_id;sensor_type;location;lat;lon;timestamp;temperature;humidity
79140;HTU21D;68546;59.142;37.948;2023-03-23T00:01:09;6.33;52.68
79140;HTU21D;68546;59.142;37.948;2023-03-23T00:03:37;6.34;52.76
79140;HTU21D;68546;59.142;37.948;2023-03-23T00:06:03;6.34;52.84
79140;HTU21D;68546;59.142;37.948;2023-03-23T00:08:39;6.34;52.95
79140;HTU21D;68546;59.142;37.948;2023-03-23T00:11:16;6.34;52.90
79140;HTU21D;68546;59.142;37.948;2023-03-23T00:13:45;6.34;52.93
79140;HTU21D;68546;59.142;37.948;2023-03-23T00:16:12;6.35;53.10
79140;HTU21D;68546;59.142;37.948;2023-03-23T00:18:50;6.36;53.06
79140;HTU21D;68546;59.142;37.948;2023-03-23T00:21:24;6.35;53.13
79140;HTU21D;68546;59.142;37.948;2023-03-23T00:23:51;6.35;53.08
79140;HTU21D;68546;59.142;37.948;2023-03-23T00:26:18;6.34;53.26
79140;HTU21D;68546;59.142;37.948;2023-03-23T00:28:44;6.36;53.39
79140;HTU21D;68546;59.142;37.948;2023-03-23T00:31:13;6.36;53.51
79140;HTU21D;68546;59.142;37.948;2023-03-23T00:33:40;6.37;53.63
79140;HTU21D;68546;59.142;37.948;2023-03-23T00:36:11;6.37;53.77
79140;HTU21D;68546;59.142;37.948;2023-03-23T00:38:39;6.38;53.80
79140;HTU21D;68546;59.142;37.948;2023-03-23T00:41:06;6.37;53.92
79140;HTU21D;68546;59.142;37.948;2023-03-23T00:43:32;6.38;53.93
79140;HTU21D;68546;59.142;37.948;2023-03-23T00:46:03;6.40;53.92
79140;HTU21D;68546;59.142;37.948;2023-03-23T00:48:37;6.40;53.96
79140;HTU21D;68546;59.142;37.948;2023-03-23T00:51:11;6.39;53.96
79140;HTU21D;68546;59.142;37.948;2023-03-23T00:53:39;6.40;54.05
79140;HTU21D;68546;59.142;37.948;2023-03-23T00:56:07;6.41;54.14
79140;HTU21D;68546;59.142;37.948;2023-03-23T00:58:34;6.42;54.30
79140;HTU21D;68546;59.142;37.948;2023-03-23T01:01:01;6.43;54.29
79140;HTU21D;68546;59.142;37.948;2023-03-23T01:03:27;6.42;54.33
79140;HTU21D;68546;59.142;37.948;2023-03-23T01:05:58;6.44;54.31
79140;HTU21D;68546;59.142;37.948;2023-03-23T01:08:29;6.45;54.41
79140;HTU21D;68546;59.142;37.948;2023-03-23T01:11:04;6.45;54.57
79140;HTU21D;68546;59.142;37.948;2023-03-23T01:13:31;6.45;54.52
79140;HTU21D;68546;59.142;37.948;2023-03-23T01:15:58;6.48;54.56
79140;HTU21D;68546;59.142;37.948;2023-03-23T01:18:25;6.49;54.55
79140;HTU21D;68546;59.142;37.948;2023-03-23T01:20:53;6.50;54.63
79140;HTU21D;68546;59.142;37.948;2023-03-23T01:23:19;6.49;54.67
79140;HTU21D;68546;59.142;37.948;2023-03-23T01:25:46;6.50;54.73
79140;HTU21D;68546;59.142;37.948;2023-03-23T01:28:12;6.50;54.84
79140;HTU21D;68546;59.142;37.948;2023-03-23T01:30:38;6.51;54.84
79140;HTU21D;68546;59.142;37.948;2023-03-23T01:33:05;6.52;54.84
79140;HTU21D;68546;59.142;37.948;2023-03-23T01:35:31;6.51;54.98
79140;HTU21D;68546;59.142;37.948;2023-03-23T01:37:58;6.52;55.03
79140;HTU21D;68546;59.142;37.948;2023-03-23T01:40:26;6.52;55.12
79140;HTU21D;68546;59.142;37.948;2023-03-23T01:42:53;6.53;55.12
79140;HTU21D;68546;59.142;37.948;2023-03-23T01:47:49;6.54;55.27
79140;HTU21D;68546;59.142;37.948;2023-03-23T01:50:20;6.54;55.36
79140;HTU21D;68546;59.142;37.948;2023-03-23T01:52:51;6.55;55.45
79140;HTU21D;68546;59.142;37.948;2023-03-23T01:55:20;6.54;55.49
79140;HTU21D;68546;59.142;37.948;2023-03-23T01:57:49;6.55;55.58
79140;HTU21D;68546;59.142;37.948;2023-03-23T02:00:16;6.56;55.58
79140;HTU21D;68546;59.142;37.948;2023-03-23T02:02:52;6.58;55.72
79140;HTU21D;68546;59.142;37.948;2023-03-23T02:05:29;6.59;55.81
79140;HTU21D;68546;59.142;37.948;2023-03-23T02:08:01;6.59;55.85
79140;HTU21D;68546;59.142;37.948;2023-03-23T02:10:33;6.59;55.89
79140;HTU21D;68546;59.142;37.948;2023-03-23T02:13:01;6.60;55.94
79140;HTU21D;68546;59.142;37.948;2023-03-23T02:15:39;6.60;56.03
79140;HTU21D;68546;59.142;37.948;2023-03-23T02:35:20;6.63;56.27
79140;HTU21D;68546;59.142;37.948;2023-03-23T02:37:51;6.64;56.37
79140;HTU21D;68546;59.142;37.948;2023-03-23T02:40:33;6.64;56.37
79140;HTU21D;68546;59.142;37.948;2023-03-23T02:43:02;6.65;56.44
79140;HTU21D;68546;59.142;37.948;2023-03-23T02:45:33;6.66;56.48
79140;HTU21D;68546;59.142;37.948;2023-03-23T02:48:01;6.66;56.53
79140;HTU21D;68546;59.142;37.948;2023-03-23T02:50:29;6.67;56.49
79140;HTU21D;68546;59.142;37.948;2023-03-23T02:52:58;6.67;56.55
79140;HTU21D;68546;59.142;37.948;2023-03-23T02:55:27;6.68;56.60
79140;HTU21D;68546;59.142;37.948;2023-03-23T02:57:57;6.69;56.58
79140;HTU21D;68546;59.142;37.948;2023-03-23T03:00:23;6.69;56.64
79140;HTU21D;68546;59.142;37.948;2023-03-23T03:02:53;6.70;56.81
79140;HTU21D;68546;59.142;37.948;2023-03-23T03:11:05;6.72;56.77
79140;HTU21D;68546;59.142;37.948;2023-03-23T03:14:00;6.72;56.70
79140;HTU21D;68546;59.142;37.948;2023-03-23T03:16:56;6.72;56.67
79140;HTU21D;68546;59.142;37.948;2023-03-23T03:19:29;6.71;56.82
79140;HTU21D;68546;59.142;37.948;2023-03-23T03:21:57;6.71;56.88
79140;HTU21D;68546;59.142;37.948;2023-03-23T03:24:34;6.71;56.89
79140;HTU21D;68546;59.142;37.948;2023-03-23T03:27:05;6.71;56.89
79140;HTU21D;68546;59.142;37.948;2023-03-23T03:29:45;6.70;56.95
79140;HTU21D;68546;59.142;37.948;2023-03-23T03:32:19;6.71;56.95
79140;HTU21D;68546;59.142;37.948;2023-03-23T03:34:47;6.71;56.96
79140;HTU21D;68546;59.142;37.948;2023-03-23T03:37:18;6.70;57.08
79140;HTU21D;68546;59.142;37.948;2023-03-23T03:39:47;6.70;57.07
79140;HTU21D;68546;59.142;37.948;2023-03-23T03:42:13;6.70;57.19
79140;HTU21D;68546;59.142;37.948;2023-03-23T03:44:40;6.72;57.20
79140;HTU21D;68546;59.142;37.948;2023-03-23T03:47:06;6.70;57.23
79140;HTU21D;68546;59.142;37.948;2023-03-23T03:49:33;6.70;57.28
79140;HTU21D;68546;59.142;37.948;2023-03-23T03:51:59;6.71;57.32
79140;HTU21D;68546;59.142;37.948;2023-03-23T03:54:35;6.72;57.27
79140;HTU21D;68546;59.142;37.948;2023-03-23T03:57:02;6.73;57.36
79140;HTU21D;68546;59.142;37.948;2023-03-23T03:59:52;6.73;57.35
79140;HTU21D;68546;59.142;37.948;2023-03-23T04:02:37;6.73;57.36
79140;HTU21D;68546;59.142;37.948;2023-03-23T04:05:03;6.73;57.34
79140;HTU21D;68546;59.142;37.948;2023-03-23T04:07:32;6.75;57.35
79140;HTU21D;68546;59.142;37.948;2023-03-23T04:09:58;6.75;57.41
79140;HTU21D;68546;59.142;37.948;2023-03-23T04:12:24;6.78;57.43
79140;HTU21D;68546;59.142;37.948;2023-03-23T04:14:54;6.76;57.42
79140;HTU21D;68546;59.142;37.948;2023-03-23T04:17:20;6.76;57.35
79140;HTU21D;68546;59.142;37.948;2023-03-23T04:19:47;6.79;57.35
79140;HTU21D;68546;59.142;37.948;2023-03-23T04:22:15;6.79;57.35
79140;HTU21D;68546;59.142;37.948;2023-03-23T04:24:43;6.79;57.37
79140;HTU21D;68546;59.142;37.948;2023-03-23T04:27:15;6.81;57.35
79140;HTU21D;68546;59.142;37.948;2023-03-23T04:29:43;6.82;57.36
79140;HTU21D;68546;59.142;37.948;2023-03-23T04:32:39;6.81;57.39
79140;HTU21D;68546;59.142;37.948;2023-03-23T04:35:11;6.80;57.34
79140;HTU21D;68546;59.142;37.948;2023-03-23T04:37:43;6.82;57.32
79140;HTU21D;68546;59.142;37.948;2023-03-23T04:40:14;6.83;57.36
79140;HTU21D;68546;59.142;37.948;2023-03-23T04:42:47;6.83;57.39
79140;HTU21D;68546;59.142;37.948;2023-03-23T04:45:18;6.84;57.45
79140;HTU21D;68546;59.142;37.948;2023-03-23T04:47:51;6.85;57.45
79140;HTU21D;68546;59.142;37.948;2023-03-23T04:50:34;6.86;57.45
79140;HTU21D;68546;59.142;37.948;2023-03-23T04:53:12;6.88;57.46
79140;HTU21D;68546;59.142;37.948;2023-03-23T04:55:41;6.91;57.48
79140;HTU21D;68546;59.142;37.948;2023-03-23T04:58:12;6.93;57.51
79140;HTU21D;68546;59.142;37.948;2023-03-23T05:01:06;6.95;57.50
79140;HTU21D;68546;59.142;37.948;2023-03-23T05:03:38;6.97;57.51
79140;HTU21D;68546;59.142;37.948;2023-03-23T05:06:05;6.99;57.56
79140;HTU21D;68546;59.142;37.948;2023-03-23T05:08:33;7.04;57.59
79140;HTU21D;68546;59.142;37.948;2023-03-23T05:11:00;7.09;57.66
79140;HTU21D;68546;59.142;37.948;2023-03-23T05:13:32;7.15;57.62
79140;HTU21D;68546;59.142;37.948;2023-03-23T05:16:03;7.19;57.60
79140;HTU21D;68546;59.142;37.948;2023-03-23T05:18:30;7.23;57.48
79140;HTU21D;68546;59.142;37.948;2023-03-23T05:21:02;7.26;57.45
79140;HTU21D;68546;59.142;37.948;2023-03-23T05:23:33;7.30;57.42
79140;HTU21D;68546;59.142;37.948;2023-03-23T05:26:07;7.33;57.37
79140;HTU21D;68546;59.142;37.948;2023-03-23T05:28:34;7.37;57.30
79140;HTU21D;68546;59.142;37.948;2023-03-23T05:31:07;7.40;57.29
79140;HTU21D;68546;59.142;37.948;2023-03-23T05:33:33;7.42;57.22
79140;HTU21D;68546;59.142;37.948;2023-03-23T05:36:14;7.47;57.17
79140;HTU21D;68546;59.142;37.948;2023-03-23T05:39:00;7.48;57.17
79140;HTU21D;68546;59.142;37.948;2023-03-23T05:41:44;7.54;57.16
79140;HTU21D;68546;59.142;37.948;2023-03-23T05:44:13;7.57;57.15
79140;HTU21D;68546;59.142;37.948;2023-03-23T05:46:50;7.62;57.19
79140;HTU21D;68546;59.142;37.948;2023-03-23T05:49:17;7.67;57.15
79140;HTU21D;68546;59.142;37.948;2023-03-23T05:51:45;7.72;57.09
79140;HTU21D;68546;59.142;37.948;2023-03-23T05:54:16;7.77;57.02
79140;HTU21D;68546;59.142;37.948;2023-03-23T05:56:44;7.83;56.97
79140;HTU21D;68546;59.142;37.948;2023-03-23T05:59:39;7.86;56.90
79140;HTU21D;68546;59.142;37.948;2023-03-23T06:02:12;7.90;56.86
79140;HTU21D;68546;59.142;37.948;2023-03-23T06:04:40;7.99;56.86
79140;HTU21D;68546;59.142;37.948;2023-03-23T06:07:17;8.05;56.86
79140;HTU21D;68546;59.142;37.948;2023-03-23T06:09:53;8.11;56.84
79140;HTU21D;68546;59.142;37.948;2023-03-23T06:12:23;8.20;56.82
79140;HTU21D;68546;59.142;37.948;2023-03-23T06:15:13;8.30;56.79
79140;HTU21D;68546;59.142;37.948;2023-03-23T06:18:18;8.41;56.63
79140;HTU21D;68546;59.142;37.948;2023-03-23T06:21:05;8.51;56.52
79140;HTU21D;68546;59.142;37.948;2023-03-23T06:23:47;8.62;56.49
79140;HTU21D;68546;59.142;37.948;2023-03-23T06:26:18;8.72;56.45
79140;HTU21D;68546;59.142;37.948;2023-03-23T06:28:48;8.83;56.39
79140;HTU21D;68546;59.142;37.948;2023-03-23T06:31:14;8.94;56.25
79140;HTU21D;68546;59.142;37.948;2023-03-23T06:33:41;9.04;56.04
79140;HTU21D;68546;59.142;37.948;2023-03-23T06:36:26;9.10;55.69
79140;HTU21D;68546;59.142;37.948;2023-03-23T06:39:11;9.16;55.44
79140;HTU21D;68546;59.142;37.948;2023-03-23T06:42:11;9.21;55.34
79140;HTU21D;68546;59.142;37.948;2023-03-23T06:44:43;9.27;55.29
79140;HTU21D;68546;59.142;37.948;2023-03-23T06:47:11;9.35;55.10
79140;HTU21D;68546;59.142;37.948;2023-03-23T06:49:45;9.37;54.95
79140;HTU21D;68546;59.142;37.948;2023-03-23T06:52:31;9.45;54.82
79140;HTU21D;68546;59.142;37.948;2023-03-23T06:54:58;9.53;54.73
79140;HTU21D;68546;59.142;37.948;2023-03-23T06:57:25;9.62;54.74
79140;HTU21D;68546;59.142;37.948;2023-03-23T06:59:52;9.69;54.65
79140;HTU21D;68546;59.142;37.948;2023-03-23T07:02:21;9.77;54.44
79140;HTU21D;68546;59.142;37.948;2023-03-23T07:04:51;9.83;54.06
79140;HTU21D;68546;59.142;37.948;2023-03-23T07:07:21;9.86;53.72
79140;HTU21D;68546;59.142;37.948;2023-03-23T07:09:53;9.93;53.75
79140;HTU21D;68546;59.142;37.948;2023-03-23T07:12:23;9.96;53.64
79140;HTU21D;68546;59.142;37.948;2023-03-23T07:14:51;10.01;53.58
79140;HTU21D;68546;59.142;37.948;2023-03-23T07:17:17;10.06;53.53
79140;HTU21D;68546;59.142;37.948;2023-03-23T07:20:00;10.10;53.49
79140;HTU21D;68546;59.142;37.948;2023-03-23T07:22:28;10.16;53.46
79140;HTU21D;68546;59.142;37.948;2023-03-23T07:25:04;10.23;53.36
79140;HTU21D;68546;59.142;37.948;2023-03-23T07:27:41;10.31;53.30
79140;HTU21D;68546;59.142;37.948;2023-03-23T07:30:08;10.40;53.34
79140;HTU21D;68546;59.142;37.948;2023-03-23T07:32:35;10.50;53.32
79140;HTU21D;68546;59.142;37.948;2023-03-23T07:35:01;10.62;53.29
79140;HTU21D;68546;59.142;37.948;2023-03-23T07:37:45;10.73;53.07
79140;HTU21D;68546;59.142;37.948;2023-03-23T07:40:16;10.85;52.93
79140;HTU21D;68546;59.142;37.948;2023-03-23T07:42:56;10.96;52.69
79140;HTU21D;68546;59.142;37.948;2023-03-23T07:45:55;11.08;52.54
79140;HTU21D;68546;59.142;37.948;2023-03-23T07:48:25;11.16;52.20
79140;HTU21D;68546;59.142;37.948;2023-03-23T07:50:52;11.23;51.98
79140;HTU21D;68546;59.142;37.948;2023-03-23T07:53:20;11.28;51.70
79140;HTU21D;68546;59.142;37.948;2023-03-23T07:56:08;11.30;51.54
79140;HTU21D;68546;59.142;37.948;2023-03-23T07:58:48;11.31;51.37
79140;HTU21D;68546;59.142;37.948;2023-03-23T08:01:16;11.30;51.09
79140;HTU21D;68546;59.142;37.948;2023-03-23T08:03:56;11.28;50.99
79140;HTU21D;68546;59.142;37.948;2023-03-23T08:06:47;11.24;50.93
79140;HTU21D;68546;59.142;37.948;2023-03-23T08:09:33;11.17;50.92
79140;HTU21D;68546;59.142;37.948;2023-03-23T08:12:29;11.14;50.89
79140;HTU21D;68546;59.142;37.948;2023-03-23T08:15:16;11.08;50.86
79140;HTU21D;68546;59.142;37.948;2023-03-23T08:18:05;11.03;50.88
79140;HTU21D;68546;59.142;37.948;2023-03-23T08:20:50;10.98;50.94
79140;HTU21D;68546;59.142;37.948;2023-03-23T08:23:35;10.92;50.97
79140;HTU21D;68546;59.142;37.948;2023-03-23T08:26:25;10.86;51.00
79140;HTU21D;68546;59.142;37.948;2023-03-23T08:29:12;10.83;51.04
79140;HTU21D;68546;59.142;37.948;2023-03-23T08:32:02;10.79;51.07
79140;HTU21D;68546;59.142;37.948;2023-03-23T08:34:41;10.73;51.21
79140;HTU21D;68546;59.142;37.948;2023-03-23T08:37:27;10.73;51.40
79140;HTU21D;68546;59.142;37.948;2023-03-23T08:40:04;10.72;51.49
79140;HTU21D;68546;59.142;37.948;2023-03-23T08:43:08;10.73;51.57
79140;HTU21D;68546;59.142;37.948;2023-03-23T08:45:53;10.77;51.71
79140;HTU21D;68546;59.142;37.948;2023-03-23T08:48:48;10.83;51.83
79140;HTU21D;68546;59.142;37.948;2023-03-23T08:51:33;10.90;51.87
79140;HTU21D;68546;59.142;37.948;2023-03-23T08:54:25;11.00;51.88
79140;HTU21D;68546;59.142;37.948;2023-03-23T08:57:16;11.09;51.84
79140;HTU21D;68546;59.142;37.948;2023-03-23T09:00:06;11.22;51.89
79140;HTU21D;68546;59.142;37.948;2023-03-23T09:02:56;11.33;51.80
79140;HTU21D;68546;59.142;37.948;2023-03-23T09:05:30;11.43;51.50
79140;HTU21D;68546;59.142;37.948;2023-03-23T09:08:10;11.49;51.28
79140;HTU21D;68546;59.142;37.948;2023-03-23T09:10:38;11.57;51.12
79140;HTU21D;68546;59.142;37.948;2023-03-23T09:13:05;11.63;51.02
79140;HTU21D;68546;59.142;37.948;2023-03-23T09:15:33;11.71;50.91
79140;HTU21D;68546;59.142;37.948;2023-03-23T09:17:59;11.78;50.77
79140;HTU21D;68546;59.142;37.948;2023-03-23T09:20:27;11.87;50.64
79140;HTU21D;68546;59.142;37.948;2023-03-23T09:22:56;11.92;50.40
79140;HTU21D;68546;59.142;37.948;2023-03-23T09:25:26;11.96;50.12
79140;HTU21D;68546;59.142;37.948;2023-03-23T09:27:55;11.96;49.95
79140;HTU21D;68546;59.142;37.948;2023-03-23T09:30:24;11.97;49.88
79140;HTU21D;68546;59.142;37.948;2023-03-23T09:32:53;11.97;49.82
79140;HTU21D;68546;59.142;37.948;2023-03-23T09:35:20;11.93;49.57
79140;HTU21D;68546;59.142;37.948;2023-03-23T09:37:49;11.91;49.56
79140;HTU21D;68546;59.142;37.948;2023-03-23T09:40:22;11.90;49.58
79140;HTU21D;68546;59.142;37.948;2023-03-23T09:48:42;11.86;49.69
79140;HTU21D;68546;59.142;37.948;2023-03-23T09:51:37;11.88;49.66
79140;HTU21D;68546;59.142;37.948;2023-03-23T09:54:29;11.88;49.69
79140;HTU21D;68546;59.142;37.948;2023-03-23T09:56:58;11.88;49.70
79140;HTU21D;68546;59.142;37.948;2023-03-23T10:02:54;11.91;49.67
79140;HTU21D;68546;59.142;37.948;2023-03-23T10:05:34;11.91;49.80
79140;HTU21D;68546;59.142;37.948;2023-03-23T10:08:09;11.92;49.87
79140;HTU21D;68546;59.142;37.948;2023-03-23T10:17:12;11.79;49.85
79140;HTU21D;68546;59.142;37.948;2023-03-23T10:20:05;11.76;49.94
79140;HTU21D;68546;59.142;37.948;2023-03-23T10:22:47;11.72;50.02
79140;HTU21D;68546;59.142;37.948;2023-03-23T10:25:19;11.70;50.11
79140;HTU21D;68546;59.142;37.948;2023-03-23T10:28:10;11.67;50.26
79140;HTU21D;68546;59.142;37.948;2023-03-23T10:30:40;11.64;50.44
79140;HTU21D;68546;59.142;37.948;2023-03-23T10:33:44;11.63;50.50
79140;HTU21D;68546;59.142;37.948;2023-03-23T10:36:16;11.60;50.59
79140;HTU21D;68546;59.142;37.948;2023-03-23T10:39:00;11.60;50.79
79140;HTU21D;68546;59.142;37.948;2023-03-23T10:41:28;11.60;50.85
79140;HTU21D;68546;59.142;37.948;2023-03-23T10:43:56;11.61;50.85
79140;HTU21D;68546;59.142;37.948;2023-03-23T10:49:27;11.57;50.77
79140;HTU21D;68546;59.142;37.948;2023-03-23T10:54:45;11.53;50.91
79140;HTU21D;68546;59.142;37.948;2023-03-23T10:57:25;11.52;50.94
79140;HTU21D;68546;59.142;37.948;2023-03-23T11:00:02;11.49;50.99
79140;HTU21D;68546;59.142;37.948;2023-03-23T11:02:40;11.48;51.01
79140;HTU21D;68546;59.142;37.948;2023-03-23T11:05:47;11.45;50.99
79140;HTU21D;68546;59.142;37.948;2023-03-23T11:08:20;11.44;51.11
79140;HTU21D;68546;59.142;37.948;2023-03-23T11:10:54;11.42;51.18
79140;HTU21D;68546;59.142;37.948;2023-03-23T11:13:31;11.41;51.27
79140;HTU21D;68546;59.142;37.948;2023-03-23T11:15:59;11.43;51.41
79140;HTU21D;68546;59.142;37.948;2023-03-23T11:18:34;11.46;51.47
79140;HTU21D;68546;59.142;37.948;2023-03-23T11:21:03;11.51;51.50
79140;HTU21D;68546;59.142;37.948;2023-03-23T11:23:35;11.58;51.56
79140;HTU21D;68546;59.142;37.948;2023-03-23T11:26:43;11.63;51.50
79140;HTU21D;68546;59.142;37.948;2023-03-23T11:31:42;11.73;51.30
79140;HTU21D;68546;59.142;37.948;2023-03-23T11:34:14;11.75;51.17
79140;HTU21D;68546;59.142;37.948;2023-03-23T11:36:48;11.77;51.04
79140;HTU21D;68546;59.142;37.948;2023-03-23T11:39:33;11.77;50.95
79140;HTU21D;68546;59.142;37.948;2023-03-23T11:42:11;11.75;50.82
79140;HTU21D;68546;59.142;37.948;2023-03-23T11:44:42;11.74;50.72
79140;HTU21D;68546;59.142;37.948;2023-03-23T11:50:26;11.73;50.82
79140;HTU21D;68546;59.142;37.948;2023-03-23T11:55:25;11.72;50.81
79140;HTU21D;68546;59.142;37.948;2023-03-23T11:57:54;11.71;50.77
79140;HTU21D;68546;59.142;37.948;2023-03-23T12:00:22;11.70;50.80
79140;HTU21D;68546;59.142;37.948;2023-03-23T12:06:04;11.67;50.82
79140;HTU21D;68546;59.142;37.948;2023-03-23T12:15:13;11.62;50.98
79140;HTU21D;68546;59.142;37.948;2023-03-23T12:17:34;11.61;51.04
79140;HTU21D;68546;59.142;37.948;2023-03-23T12:25:32;11.56;51.08
79140;HTU21D;68546;59.142;37.948;2023-03-23T12:31:11;11.52;51.17
79140;HTU21D;68546;59.142;37.948;2023-03-23T12:39:42;11.45;51.43
79140;HTU21D;68546;59.142;37.948;2023-03-23T12:45:00;11.43;51.59
79140;HTU21D;68546;59.142;37.948;2023-03-23T12:47:42;11.45;51.74
79140;HTU21D;68546;59.142;37.948;2023-03-23T12:50:28;11.45;51.72
79140;HTU21D;68546;59.142;37.948;2023-03-23T12:53:13;11.44;51.72
79140;HTU21D;68546;59.142;37.948;2023-03-23T12:55:49;11.45;51.78
79140;HTU21D;68546;59.142;37.948;2023-03-23T12:58:21;11.44;51.80
79140;HTU21D;68546;59.142;37.948;2023-03-23T13:00:55;11.43;51.84
79140;HTU21D;68546;59.142;37.948;2023-03-23T13:06:47;11.41;51.90
79140;HTU21D;68546;59.142;37.948;2023-03-23T13:11:57;11.37;51.98
79140;HTU21D;68546;59.142;37.948;2023-03-23T13:23:08;11.33;52.26
79140;HTU21D;68546;59.142;37.948;2023-03-23T13:31:27;11.29;52.43
79140;HTU21D;68546;59.142;37.948;2023-03-23T13:34:24;11.27;52.41
79140;HTU21D;68546;59.142;37.948;2023-03-23T13:37:04;11.26;52.53
79140;HTU21D;68546;59.142;37.948;2023-03-23T13:39:35;11.25;52.58
79140;HTU21D;68546;59.142;37.948;2023-03-23T13:44:41;11.22;52.72
79140;HTU21D;68546;59.142;37.948;2023-03-23T13:47:26;11.20;52.76
79140;HTU21D;68546;59.142;37.948;2023-03-23T13:52:48;11.19;52.82
79140;HTU21D;68546;59.142;37.948;2023-03-23T14:03:53;11.13;53.43
79140;HTU21D;68546;59.142;37.948;2023-03-23T14:06:13;11.11;53.67
79140;HTU21D;68546;59.142;37.948;2023-03-23T14:11:56;11.03;53.72
79140;HTU21D;68546;59.142;37.948;2023-03-23T14:14:31;10.99;54.07
79140;HTU21D;68546;59.142;37.948;2023-03-23T14:17:19;10.97;54.04
79140;HTU21D;68546;59.142;37.948;2023-03-23T14:19:50;10.94;54.40
79140;HTU21D;68546;59.142;37.948;2023-03-23T14:22:27;10.90;54.67
79140;HTU21D;68546;59.142;37.948;2023-03-23T14:25:02;10.86;54.75
79140;HTU21D;68546;59.142;37.948;2023-03-23T14:27:35;10.82;54.91
79140;HTU21D;68546;59.142;37.948;2023-03-23T14:30:06;10.79;55.24
79140;HTU21D;68546;59.142;37.948;2023-03-23T14:32:33;10.77;55.39
79140;HTU21D;68546;59.142;37.948;2023-03-23T14:35:07;10.72;55.69
79140;HTU21D;68546;59.142;37.948;2023-03-23T14:37:35;10.70;55.78
79140;HTU21D;68546;59.142;37.948;2023-03-23T14:40:02;10.69;56.05
79140;HTU21D;68546;59.142;37.948;2023-03-23T14:42:34;10.66;56.30
79140;HTU21D;68546;59.142;37.948;2023-03-23T14:45:04;10.64;56.51
79140;HTU21D;68546;59.142;37.948;2023-03-23T14:47:34;10.62;56.61
79140;HTU21D;68546;59.142;37.948;2023-03-23T14:50:03;10.58;56.72
79140;HTU21D;68546;59.142;37.948;2023-03-23T14:52:36;10.55;56.86
79140;HTU21D;68546;59.142;37.948;2023-03-23T14:55:21;10.53;56.71
79140;HTU21D;68546;59.142;37.948;2023-03-23T14:57:49;10.51;57.11
79140;HTU21D;68546;59.142;37.948;2023-03-23T15:00:22;10.46;57.38
79140;HTU21D;68546;59.142;37.948;2023-03-23T15:02:55;10.43;57.57
79140;HTU21D;68546;59.142;37.948;2023-03-23T15:07:54;10.37;57.83
79140;HTU21D;68546;59.142;37.948;2023-03-23T15:10:23;10.35;57.90
79140;HTU21D;68546;59.142;37.948;2023-03-23T15:12:50;10.31;58.11
79140;HTU21D;68546;59.142;37.948;2023-03-23T15:15:24;10.28;58.31
79140;HTU21D;68546;59.142;37.948;2023-03-23T15:17:52;10.26;58.26
79140;HTU21D;68546;59.142;37.948;2023-03-23T15:20:29;10.23;58.55
79140;HTU21D;68546;59.142;37.948;2023-03-23T15:23:06;10.22;58.67
79140;HTU21D;68546;59.142;37.948;2023-03-23T15:25:35;10.19;58.89
79140;HTU21D;68546;59.142;37.948;2023-03-23T15:28:18;10.18;58.90
79140;HTU21D;68546;59.142;37.948;2023-03-23T15:30:53;10.13;58.99
79140;HTU21D;68546;59.142;37.948;2023-03-23T15:33:21;10.09;59.12
79140;HTU21D;68546;59.142;37.948;2023-03-23T15:35:54;10.07;59.40
79140;HTU21D;68546;59.142;37.948;2023-03-23T15:38:32;10.07;59.52
79140;HTU21D;68546;59.142;37.948;2023-03-23T15:41:02;10.01;59.71
79140;HTU21D;68546;59.142;37.948;2023-03-23T15:43:50;10.01;59.51
79140;HTU21D;68546;59.142;37.948;2023-03-23T15:51:29;9.95;60.31
79140;HTU21D;68546;59.142;37.948;2023-03-23T15:53:56;9.92;60.44
79140;HTU21D;68546;59.142;37.948;2023-03-23T15:56:24;9.90;60.64
79140;HTU21D;68546;59.142;37.948;2023-03-23T15:58:52;9.89;60.80
79140;HTU21D;68546;59.142;37.948;2023-03-23T16:01:25;9.86;60.95
79140;HTU21D;68546;59.142;37.948;2023-03-23T16:06:24;9.82;61.23
79140;HTU21D;68546;59.142;37.948;2023-03-23T16:08:55;9.79;61.48
79140;HTU21D;68546;59.142;37.948;2023-03-23T16:11:23;9.75;61.58
79140;HTU21D;68546;59.142;37.948;2023-03-23T16:13:51;9.74;61.76
79140;HTU21D;68546;59.142;37.948;2023-03-23T16:18:52;9.69;61.96
79140;HTU21D;68546;59.142;37.948;2023-03-23T16:21:19;9.66;62.14
79140;HTU21D;68546;59.142;37.948;2023-03-23T16:23:45;9.63;62.24
79140;HTU21D;68546;59.142;37.948;2023-03-23T16:26:15;9.61;62.45
79140;HTU21D;68546;59.142;37.948;2023-03-23T16:28:43;9.60;62.59
79140;HTU21D;68546;59.142;37.948;2023-03-23T16:31:11;9.59;62.65
79140;HTU21D;68546;59.142;37.948;2023-03-23T16:33:39;9.56;62.76
79140;HTU21D;68546;59.142;37.948;2023-03-23T16:36:05;9.56;62.89
79140;HTU21D;68546;59.142;37.948;2023-03-23T16:38:32;9.55;63.02
79140;HTU21D;68546;59.142;37.948;2023-03-23T16:40:59;9.54;63.16
79140;HTU21D;68546;59.142;37.948;2023-03-23T16:43:25;9.54;63.31
79140;HTU21D;68546;59.142;37.948;2023-03-23T16:45:54;9.52;63.42
79140;HTU21D;68546;59.142;37.948;2023-03-23T16:48:22;9.51;63.34
79140;HTU21D;68546;59.142;37.948;2023-03-23T16:50:49;9.50;63.47
79140;HTU21D;68546;59.142;37.948;2023-03-23T16:53:16;9.48;63.60
79140;HTU21D;68546;59.142;37.948;2023-03-23T16:55:42;9.48;63.72
79140;HTU21D;68546;59.142;37.948;2023-03-23T16:58:14;9.47;63.76
79140;HTU21D;68546;59.142;37.948;2023-03-23T17:00:42;9.46;63.79
79140;HTU21D;68546;59.142;37.948;2023-03-23T17:03:08;9.45;63.89
79140;HTU21D;68546;59.142;37.948;2023-03-23T17:05:36;9.42;63.85
79140;HTU21D;68546;59.142;37.948;2023-03-23T17:08:02;9.40;63.92
79140;HTU21D;68546;59.142;37.948;2023-03-23T17:10:30;9.39;63.94
79140;HTU21D;68546;59.142;37.948;2023-03-23T17:12:58;9.37;64.03
79140;HTU21D;68546;59.142;37.948;2023-03-23T17:15:24;9.35;64.13
79140;HTU21D;68546;59.142;37.948;2023-03-23T17:17:51;9.35;64.21
79140;HTU21D;68546;59.142;37.948;2023-03-23T17:20:20;9.33;64.23
79140;HTU21D;68546;59.142;37.948;2023-03-23T17:22:47;9.32;64.34
79140;HTU21D;68546;59.142;37.948;2023-03-23T17:25:14;9.32;64.39
79140;HTU21D;68546;59.142;37.948;2023-03-23T17:27:40;9.30;64.48
79140;HTU21D;68546;59.142;37.948;2023-03-23T17:30:08;9.31;64.55
79140;HTU21D;68546;59.142;37.948;2023-03-23T17:32:35;9.30;64.60
79140;HTU21D;68546;59.142;37.948;2023-03-23T17:35:03;9.29;64.66
79140;HTU21D;68546;59.142;37.948;2023-03-23T17:37:31;9.29;64.66
79140;HTU21D;68546;59.142;37.948;2023-03-23T17:39:57;9.27;64.68
79140;HTU21D;68546;59.142;37.948;2023-03-23T17:42:24;9.25;64.66
79140;HTU21D;68546;59.142;37.948;2023-03-23T17:44:50;9.24;64.76
79140;HTU21D;68546;59.142;37.948;2023-03-23T17:47:17;9.24;64.90
79140;HTU21D;68546;59.142;37.948;2023-03-23T17:49:43;9.22;64.95
79140;HTU21D;68546;59.142;37.948;2023-03-23T17:52:09;9.22;65.06
79140;HTU21D;68546;59.142;37.948;2023-03-23T17:54:36;9.21;65.08
79140;HTU21D;68546;59.142;37.948;2023-03-23T17:57:02;9.21;65.08
79140;HTU21D;68546;59.142;37.948;2023-03-23T17:59:29;9.20;65.17